Time;durP1;ratioP1;P1;durP2;ratioP2;P2;SDS_P1;SDS_P2;PMS_P1;PMS_P2;Temp;Humidity;BMP_temperature;BMP_pressure;BME280_temperature;BME280_humidity;BME280_pressure;Samples;Min_cycle;Max_cycle;Signal;HPM_P1;HPM_P2
2023/05/19 00:00:14;;;;;;;14.30;5.38;;;7.50;99.90;;;;;;5126719;27;20050;-78
2023/05/19 00:02:42;;;;;;;12.98;4.65;;;7.50;99.90;;;;;;5127697;27;20115;-78
2023/05/19 00:05:09;;;;;;;21.58;5.70;;;7.50;99.90;;;;;;5124375;27;20055;-78
2023/05/19 00:07:37;;;;;;;12.82;4.53;;;7.40;99.90;;;;;;5140881;27;20200;-79
2023/05/19 00:10:04;;;;;;;12.13;5.32;;;7.40;99.90;;;;;;5120061;27;20031;-79
2023/05/19 00:12:31;;;;;;;19.17;5.50;;;7.40;99.90;;;;;;5123750;27;20051;-78
2023/05/19 00:14:57;;;;;;;17.08;5.72;;;7.40;99.90;;;;;;5121060;27;20177;-78
2023/05/19 00:17:23;;;;;;;12.38;4.85;;;7.30;99.90;;;;;;5124482;27;20142;-78
2023/05/19 00:19:48;;;;;;;16.48;5.03;;;7.30;99.90;;;;;;5095524;28;20270;-78
2023/05/19 00:22:14;;;;;;;19.77;4.82;;;7.30;99.90;;;;;;5103643;28;20059;-79
2023/05/19 00:24:40;;;;;;;13.02;4.43;;;7.20;99.90;;;;;;5109308;27;20083;-79
2023/05/19 00:27:05;;;;;;;23.52;5.65;;;7.40;99.90;;;;;;5108074;28;20071;-78
2023/05/19 00:29:31;;;;;;;17.02;4.97;;;7.20;99.90;;;;;;5088932;28;20043;-78
2023/05/19 00:31:57;;;;;;;21.48;5.57;;;7.30;99.90;;;;;;5086742;28;20068;-78
2023/05/19 00:34:23;;;;;;;16.83;5.30;;;7.30;99.90;;;;;;5079462;28;20055;-79
2023/05/19 00:36:49;;;;;;;23.15;5.18;;;7.30;99.90;;;;;;5086835;28;20040;-79
2023/05/19 00:39:16;;;;;;;17.98;4.53;;;7.40;99.90;;;;;;5095546;27;20090;-79
2023/05/19 00:41:42;;;;;;;16.15;4.68;;;7.40;99.90;;;;;;5085013;28;20040;-79
2023/05/19 00:44:07;;;;;;;22.67;5.72;;;7.60;99.90;;;;;;5108674;28;20048;-78
2023/05/19 00:46:33;;;;;;;17.08;4.72;;;7.50;99.90;;;;;;5085592;28;20047;-79
2023/05/19 00:48:59;;;;;;;20.10;5.43;;;7.60;99.90;;;;;;5083147;28;20057;-79
2023/05/19 00:51:27;;;;;;;18.45;5.13;;;7.80;99.90;;;;;;5089639;28;20048;-78
2023/05/19 00:53:53;;;;;;;21.48;5.25;;;7.60;99.90;;;;;;5087515;28;20055;-79
2023/05/19 00:56:20;;;;;;;21.92;5.35;;;7.60;99.90;;;;;;5085738;28;20123;-78
2023/05/19 00:58:46;;;;;;;14.80;4.75;;;7.70;99.90;;;;;;5080764;28;20424;-79
2023/05/19 01:01:13;;;;;;;19.15;4.90;;;7.60;99.90;;;;;;5085688;28;20050;-78
2023/05/19 01:03:41;;;;;;;17.67;5.43;;;7.70;99.90;;;;;;5065943;28;20127;-79
2023/05/19 01:06:07;;;;;;;25.95;5.05;;;7.60;99.90;;;;;;5109125;28;20043;-79
2023/05/19 01:08:35;;;;;;;20.58;4.93;;;7.60;99.90;;;;;;5086891;28;20054;-79
2023/05/19 01:11:01;;;;;;;20.35;4.88;;;7.60;99.90;;;;;;5086533;28;20567;-79
2023/05/19 01:13:27;;;;;;;16.13;4.70;;;7.60;99.90;;;;;;5099220;28;20138;-79
2023/05/19 01:16:06;;;;;;;18.25;4.78;;;7.80;99.90;;;;;;5112690;27;20459;-79
2023/05/19 01:18:39;;;;;;;16.15;4.05;;;7.60;99.90;;;;;;5129359;27;20082;-79
2023/05/19 01:21:35;;;;;;;21.55;5.00;;;7.50;99.90;;;;;;5127260;27;20079;-79
2023/05/19 01:24:21;;;;;;;18.65;4.72;;;7.40;99.90;;;;;;5112518;27;20035;-79
2023/05/19 01:26:57;;;;;;;15.82;5.35;;;7.40;99.90;;;;;;5149415;27;20038;-78
2023/05/19 01:29:50;;;;;;;17.17;5.50;;;7.40;99.90;;;;;;5126023;27;20489;-78
2023/05/19 01:32:19;;;;;;;17.00;5.30;;;7.40;99.90;;;;;;5148862;27;20045;-79
2023/05/19 01:34:47;;;;;;;24.92;5.63;;;7.40;99.90;;;;;;5129612;27;20059;-78
2023/05/19 01:37:15;;;;;;;20.58;5.57;;;7.40;99.90;;;;;;5148120;27;20035;-79
2023/05/19 01:39:42;;;;;;;20.95;5.20;;;7.30;99.90;;;;;;5129350;27;20055;-79
2023/05/19 01:42:09;;;;;;;16.75;5.60;;;7.40;99.90;;;;;;5119785;28;20576;-79
2023/05/19 01:44:35;;;;;;;20.80;5.47;;;7.30;99.90;;;;;;5129957;27;20449;-79
2023/05/19 01:47:01;;;;;;;15.45;4.80;;;7.30;99.90;;;;;;5129832;27;20045;-79
2023/05/19 01:49:27;;;;;;;17.92;4.80;;;7.20;99.90;;;;;;5129170;27;20039;-78
2023/05/19 01:51:52;;;;;;;13.38;4.45;;;7.50;99.90;;;;;;5130797;27;20050;-79
2023/05/19 01:54:18;;;;;;;17.83;4.88;;;7.20;99.90;;;;;;5133835;27;20070;-78
2023/05/19 01:57:03;;;;;;;17.73;4.70;;;7.20;99.90;;;;;;5130294;27;20043;-78
2023/05/19 01:59:30;;;;;;;14.95;4.63;;;7.00;99.90;;;;;;5111471;27;20046;-78
2023/05/19 02:01:59;;;;;;;21.58;4.93;;;6.90;99.90;;;;;;5123666;27;20047;-79
2023/05/19 02:04:42;;;;;;;22.02;5.20;;;7.00;99.90;;;;;;5132989;27;20077;-78
2023/05/19 02:07:16;;;;;;;18.80;4.95;;;6.90;99.90;;;;;;5138503;27;20047;-79
2023/05/19 02:09:51;;;;;;;16.20;4.85;;;6.90;99.90;;;;;;5133874;27;20084;-79
2023/05/19 02:12:32;;;;;;;21.40;5.10;;;6.80;99.90;;;;;;5115667;27;20042;-78
2023/05/19 02:15:10;;;;;;;14.18;4.30;;;6.80;99.90;;;;;;5130521;27;20126;-79
2023/05/19 02:17:40;;;;;;;18.70;5.05;;;6.80;99.90;;;;;;5112912;27;20059;-79
2023/05/19 02:20:08;;;;;;;21.42;6.07;;;6.80;99.90;;;;;;5127873;27;20059;-79
2023/05/19 02:22:34;;;;;;;16.42;4.72;;;6.80;99.90;;;;;;5129754;27;20375;-79
2023/05/19 02:25:00;;;;;;;16.92;4.38;;;6.90;99.90;;;;;;5104651;27;20501;-79
2023/05/19 02:27:26;;;;;;;15.73;5.05;;;6.90;99.90;;;;;;5151238;27;20046;-79
2023/05/19 02:29:52;;;;;;;20.58;4.40;;;6.90;99.90;;;;;;5133229;27;20382;-78
2023/05/19 02:32:18;;;;;;;14.90;4.55;;;7.30;99.90;;;;;;5129146;27;20050;-78
2023/05/19 02:34:44;;;;;;;14.77;4.75;;;7.10;99.90;;;;;;5126106;27;20039;-79
2023/05/19 02:37:13;;;;;;;19.05;4.22;;;7.20;99.90;;;;;;5131769;27;20050;-79
2023/05/19 02:39:40;;;;;;;12.68;4.15;;;7.00;99.90;;;;;;5129666;27;20454;-79
2023/05/19 02:42:06;;;;;;;12.40;3.65;;;7.00;99.90;;;;;;5132742;27;20051;-79
2023/05/19 02:44:32;;;;;;;215.85;10.73;;;6.70;99.90;;;;;;5150601;27;20042;-78
2023/05/19 02:46:57;;;;;;;10.45;2.70;;;7.10;99.90;;;;;;5151931;27;20562;-79
2023/05/19 02:49:23;;;;;;;14.02;3.72;;;6.90;99.90;;;;;;5150792;27;20035;-78
2023/05/19 02:51:49;;;;;;;14.93;3.47;;;6.60;99.90;;;;;;5133343;27;20091;-78
2023/05/19 02:54:14;;;;;;;11.60;3.05;;;6.80;99.90;;;;;;5115559;27;20698;-79
2023/05/19 02:56:40;;;;;;;14.80;3.35;;;6.70;99.90;;;;;;5132837;27;20494;-79
2023/05/19 02:59:06;;;;;;;8.15;3.17;;;6.50;99.90;;;;;;5151928;27;20045;-78
2023/05/19 03:01:31;;;;;;;21.92;4.97;;;6.70;99.90;;;;;;5131600;27;20039;-79
2023/05/19 03:03:57;;;;;;;14.48;3.60;;;7.20;99.90;;;;;;5128345;27;20051;-78
2023/05/19 03:06:23;;;;;;;13.13;3.67;;;6.30;99.90;;;;;;5122153;27;20053;-78
2023/05/19 03:08:49;;;;;;;5.47;1.95;;;6.80;99.90;;;;;;5151072;27;20039;-78
2023/05/19 03:11:16;;;;;;;11.55;2.90;;;6.30;99.90;;;;;;5129437;27;20054;-78
2023/05/19 03:13:42;;;;;;;6.70;2.50;;;6.50;99.90;;;;;;5146343;27;20042;-78
2023/05/19 03:16:08;;;;;;;11.43;3.90;;;6.20;99.90;;;;;;5150161;27;20046;-78
2023/05/19 03:18:34;;;;;;;13.15;4.25;;;6.50;99.90;;;;;;5129311;27;20505;-78
2023/05/19 03:21:00;;;;;;;10.27;3.90;;;6.60;99.90;;;;;;5112472;27;20032;-78
2023/05/19 03:23:26;;;;;;;14.30;4.53;;;6.40;99.90;;;;;;5147194;27;20041;-79
2023/05/19 03:25:54;;;;;;;16.70;4.22;;;6.20;99.90;;;;;;5120407;27;20051;-78
2023/05/19 03:28:22;;;;;;;11.90;4.20;;;6.30;99.90;;;;;;5126570;27;20059;-79
2023/05/19 03:30:49;;;;;;;11.55;3.33;;;6.20;99.90;;;;;;5121955;27;20122;-78
2023/05/19 03:33:15;;;;;;;14.00;3.60;;;6.30;99.90;;;;;;5132008;27;20047;-79
2023/05/19 03:35:43;;;;;;;14.68;4.60;;;6.20;99.90;;;;;;5150818;27;20454;-79
2023/05/19 03:38:09;;;;;;;13.52;3.47;;;6.30;99.90;;;;;;5150191;27;20049;-78
2023/05/19 03:40:34;;;;;;;11.93;3.80;;;6.40;99.90;;;;;;5131912;27;20137;-79
2023/05/19 03:43:00;;;;;;;14.20;4.05;;;6.30;99.90;;;;;;5131607;27;20469;-80
2023/05/19 03:45:26;;;;;;;13.90;4.13;;;6.20;99.90;;;;;;5149524;27;20054;-79
2023/05/19 03:47:52;;;;;;;13.75;4.00;;;6.30;99.90;;;;;;5131733;27;20083;-79
2023/05/19 03:50:18;;;;;;;16.23;4.25;;;6.30;99.90;;;;;;5131516;27;20103;-79
2023/05/19 03:52:45;;;;;;;19.15;3.85;;;6.30;99.90;;;;;;5131209;27;20129;-80
2023/05/19 03:55:11;;;;;;;9.82;3.30;;;6.40;99.90;;;;;;5131745;27;20046;-79
2023/05/19 03:57:37;;;;;;;13.02;3.47;;;6.50;99.90;;;;;;5131056;27;20039;-79
2023/05/19 04:00:04;;;;;;;13.40;4.20;;;7.00;99.90;;;;;;5131490;27;20035;-79
2023/05/19 04:02:30;;;;;;;14.63;4.60;;;6.30;99.90;;;;;;5130641;27;20607;-79
2023/05/19 04:04:56;;;;;;;16.83;5.18;;;6.30;99.90;;;;;;5131164;27;20067;-79
2023/05/19 04:07:22;;;;;;;11.57;5.00;;;6.70;99.90;;;;;;5130875;27;20058;-79
2023/05/19 04:09:48;;;;;;;13.23;5.70;;;6.50;99.90;;;;;;5149966;27;20046;-79
2023/05/19 04:12:14;;;;;;;12.82;5.13;;;6.70;99.90;;;;;;5129667;27;20397;-79
2023/05/19 04:14:40;;;;;;;12.05;5.20;;;6.40;99.90;;;;;;5129989;27;20075;-79
2023/05/19 04:17:06;;;;;;;10.70;5.90;;;6.40;99.90;;;;;;5130605;27;20082;-79
2023/05/19 04:19:32;;;;;;;18.00;5.63;;;6.70;99.90;;;;;;5129934;27;20047;-79
2023/05/19 04:21:57;;;;;;;12.25;5.07;;;7.20;99.90;;;;;;5150131;27;20125;-79
2023/05/19 04:24:23;;;;;;;13.30;5.65;;;6.80;99.90;;;;;;5142818;27;20494;-79
2023/05/19 04:26:49;;;;;;;11.45;5.53;;;6.60;99.90;;;;;;5125228;27;20043;-79
2023/05/19 04:29:16;;;;;;;22.73;6.22;;;7.30;99.90;;;;;;5141143;27;20085;-78
2023/05/19 04:31:44;;;;;;;17.77;6.03;;;6.90;99.90;;;;;;5122413;27;20057;-79
2023/05/19 04:34:10;;;;;;;16.17;5.95;;;6.80;99.90;;;;;;5116875;27;20039;-79
2023/05/19 04:36:36;;;;;;;22.48;6.80;;;7.00;99.90;;;;;;5128934;27;20045;-79
2023/05/19 04:39:03;;;;;;;14.38;5.40;;;7.20;99.90;;;;;;5131260;27;20035;-79
2023/05/19 04:41:29;;;;;;;19.05;5.78;;;7.10;99.90;;;;;;5112616;27;20376;-79
2023/05/19 04:43:56;;;;;;;13.13;5.07;;;7.20;99.90;;;;;;5127424;27;20043;-79
2023/05/19 04:46:23;;;;;;;12.23;5.18;;;7.20;99.90;;;;;;5141575;27;20135;-79
2023/05/19 04:48:49;;;;;;;17.70;6.45;;;7.40;99.90;;;;;;5110277;27;20043;-79
2023/05/19 04:51:16;;;;;;;15.02;5.68;;;7.40;99.90;;;;;;5128324;27;20057;-79
2023/05/19 04:53:42;;;;;;;13.80;5.18;;;7.60;99.90;;;;;;5120634;27;20047;-79
2023/05/19 04:56:09;;;;;;;11.18;5.28;;;7.70;99.90;;;;;;5117548;27;20043;-78
2023/05/19 04:58:34;;;;;;;20.42;6.50;;;7.70;99.90;;;;;;5127680;27;20060;-79
2023/05/19 05:01:00;;;;;;;13.80;5.78;;;7.80;99.90;;;;;;5126313;27;20512;-80
2023/05/19 05:03:26;;;;;;;13.60;6.20;;;7.90;99.90;;;;;;5123161;27;20413;-79
2023/05/19 05:05:51;;;;;;;22.13;7.72;;;8.00;99.90;;;;;;5124164;27;20035;-79
2023/05/19 05:08:23;;;;;;;19.15;6.70;;;8.30;99.90;;;;;;5132765;27;20042;-79
2023/05/19 05:10:51;;;;;;;20.65;7.15;;;8.30;99.90;;;;;;5121067;27;20126;-79
2023/05/19 05:13:20;;;;;;;17.17;7.00;;;8.50;99.90;;;;;;5124184;27;20113;-79
2023/05/19 05:15:46;;;;;;;17.17;7.18;;;8.60;99.90;;;;;;5107684;27;20140;-79
2023/05/19 05:18:13;;;;;;;24.05;7.05;;;8.70;99.90;;;;;;5109837;27;20043;-80
2023/05/19 05:20:39;;;;;;;21.50;7.38;;;8.90;99.90;;;;;;5126546;27;20045;-79
2023/05/19 05:23:05;;;;;;;21.85;6.93;;;9.00;99.90;;;;;;5122993;27;20178;-80
2023/05/19 05:25:31;;;;;;;22.48;7.45;;;9.10;99.90;;;;;;5117134;27;20491;-81
2023/05/19 05:27:57;;;;;;;17.25;7.10;;;9.20;99.90;;;;;;5117836;27;20048;-80
2023/05/19 05:30:23;;;;;;;20.23;6.85;;;9.40;99.90;;;;;;5113873;27;20110;-80
2023/05/19 05:32:49;;;;;;;20.15;7.30;;;9.50;99.90;;;;;;5111201;27;20139;-80
2023/05/19 05:35:14;;;;;;;20.58;6.95;;;9.60;99.90;;;;;;5127191;27;20043;-80
2023/05/19 05:37:40;;;;;;;16.48;6.47;;;9.70;99.90;;;;;;5126676;27;20047;-80
2023/05/19 05:40:06;;;;;;;19.33;7.30;;;9.80;99.90;;;;;;5125950;27;20043;-79
2023/05/19 05:42:32;;;;;;;20.60;7.32;;;9.90;99.90;;;;;;5088050;28;20054;-80
2023/05/19 05:44:58;;;;;;;14.68;6.63;;;10.00;99.90;;;;;;5107326;28;20035;-80
2023/05/19 05:47:24;;;;;;;23.02;7.57;;;10.20;99.90;;;;;;5107481;28;20081;-80
2023/05/19 05:49:50;;;;;;;22.35;7.28;;;10.30;99.90;;;;;;5126443;28;20096;-79
2023/05/19 05:52:18;;;;;;;16.73;6.72;;;10.40;99.90;;;;;;5104000;28;20047;-80
2023/05/19 05:54:45;;;;;;;16.45;6.75;;;10.50;99.90;;;;;;5119336;28;20042;-80
2023/05/19 05:57:11;;;;;;;20.17;7.00;;;10.60;99.90;;;;;;5108539;28;20055;-80
2023/05/19 05:59:37;;;;;;;19.65;6.53;;;10.70;99.90;;;;;;5114738;28;20108;-79
2023/05/19 06:02:03;;;;;;;22.33;7.47;;;10.70;99.90;;;;;;5118347;28;20081;-80
2023/05/19 06:04:29;;;;;;;14.32;6.18;;;10.80;99.90;;;;;;5107141;28;20043;-80
2023/05/19 06:06:59;;;;;;;16.02;6.15;;;10.90;99.90;;;;;;5121569;28;20120;-80
2023/05/19 06:09:25;;;;;;;14.63;5.32;;;11.00;99.90;;;;;;5118012;28;20406;-80
2023/05/19 06:11:51;;;;;;;17.25;5.18;;;11.10;99.90;;;;;;5110407;28;20047;-79
2023/05/19 06:14:18;;;;;;;19.88;5.80;;;11.10;99.90;;;;;;5116921;28;20042;-80
2023/05/19 06:16:44;;;;;;;15.05;4.82;;;11.20;99.90;;;;;;5121261;28;20083;-80
2023/05/19 06:19:10;;;;;;;14.65;5.32;;;11.30;99.90;;;;;;5125132;28;20054;-81
2023/05/19 06:21:35;;;;;;;15.98;5.13;;;11.30;99.90;;;;;;5122912;28;20485;-81
2023/05/19 06:24:01;;;;;;;14.35;4.75;;;11.40;99.90;;;;;;5109880;28;20131;-81
2023/05/19 06:26:27;;;;;;;15.27;4.90;;;11.50;99.90;;;;;;5117079;28;20085;-81
2023/05/19 06:28:52;;;;;;;16.73;5.55;;;11.50;99.90;;;;;;5108885;28;20129;-80
2023/05/19 06:31:18;;;;;;;13.73;4.97;;;11.60;99.90;;;;;;5124836;28;20068;-81
2023/05/19 06:33:44;;;;;;;11.50;3.85;;;11.70;99.90;;;;;;5126192;28;20489;-80
2023/05/19 06:36:10;;;;;;;11.60;3.95;;;11.80;99.90;;;;;;5105584;28;20584;-80
2023/05/19 06:38:36;;;;;;;14.23;4.72;;;11.90;99.90;;;;;;5115676;27;20050;-80
2023/05/19 06:41:01;;;;;;;10.57;4.05;;;12.20;99.90;;;;;;5122880;27;20050;-81
2023/05/19 06:43:27;;;;;;;13.45;4.00;;;12.10;99.90;;;;;;5128945;27;20047;-81
2023/05/19 06:45:53;;;;;;;14.70;4.28;;;12.40;99.90;;;;;;5120258;27;20031;-80
2023/05/19 06:48:19;;;;;;;8.80;2.88;;;12.30;99.90;;;;;;5125808;27;20043;-81
2023/05/19 06:50:44;;;;;;;9.02;3.13;;;12.30;99.90;;;;;;5110781;27;20108;-80
2023/05/19 06:53:10;;;;;;;16.65;3.40;;;12.40;99.90;;;;;;5108642;27;20040;-81
2023/05/19 06:55:36;;;;;;;12.43;3.20;;;12.50;99.90;;;;;;5110088;27;20047;-81
2023/05/19 06:58:01;;;;;;;10.23;3.38;;;12.60;99.90;;;;;;5115206;27;20097;-81
2023/05/19 07:00:27;;;;;;;10.73;3.08;;;12.70;99.90;;;;;;5107150;27;20039;-81
2023/05/19 07:02:53;;;;;;;11.18;3.45;;;12.90;99.90;;;;;;5127305;27;20046;-80
2023/05/19 07:05:19;;;;;;;12.90;3.55;;;13.00;99.90;;;;;;5125028;27;20049;-80
2023/05/19 07:07:45;;;;;;;9.38;3.38;;;13.10;99.90;;;;;;5108853;27;20634;-81
2023/05/19 07:10:10;;;;;;;10.52;3.13;;;13.30;99.90;;;;;;5114223;27;20046;-81
2023/05/19 07:12:36;;;;;;;14.75;3.78;;;13.40;99.90;;;;;;5128483;27;20093;-80
2023/05/19 07:15:02;;;;;;;12.80;3.47;;;13.50;99.90;;;;;;5123636;27;20059;-81
2023/05/19 07:17:28;;;;;;;14.52;2.97;;;13.50;99.90;;;;;;5113608;27;20110;-80
2023/05/19 07:19:53;;;;;;;12.25;3.63;;;13.60;99.90;;;;;;5122000;27;20495;-81
2023/05/19 07:22:20;;;;;;;13.77;3.03;;;13.70;99.90;;;;;;5122145;27;20046;-81
2023/05/19 07:24:45;;;;;;;13.63;3.20;;;13.70;99.90;;;;;;5123543;27;20111;-80
2023/05/19 07:27:11;;;;;;;10.63;3.55;;;13.80;99.90;;;;;;5132254;27;20038;-81
2023/05/19 07:29:37;;;;;;;11.30;3.35;;;13.90;99.90;;;;;;5149754;27;20389;-81
2023/05/19 07:32:02;;;;;;;11.13;2.90;;;14.00;99.90;;;;;;5100748;27;20043;-80
2023/05/19 07:34:28;;;;;;;10.82;2.92;;;14.10;99.90;;;;;;5122684;27;20054;-80
2023/05/19 07:36:54;;;;;;;9.82;3.08;;;14.20;99.90;;;;;;5130457;27;20039;-79
2023/05/19 07:39:20;;;;;;;10.98;2.70;;;14.30;99.90;;;;;;5113841;27;20119;-80
2023/05/19 07:41:51;;;;;;;12.48;3.20;;;14.30;99.90;;;;;;5139390;27;20494;-78
2023/05/19 07:44:17;;;;;;;22.83;2.97;;;14.40;99.90;;;;;;5118540;27;20059;-80
2023/05/19 07:46:43;;;;;;;10.63;2.60;;;14.50;99.90;;;;;;5127412;27;20429;-79
2023/05/19 07:49:08;;;;;;;14.77;2.67;;;14.50;99.90;;;;;;5117122;27;20443;-80
2023/05/19 07:51:34;;;;;;;9.77;2.47;;;14.60;99.90;;;;;;5100490;27;20400;-80
2023/05/19 07:54:01;;;;;;;10.55;2.55;;;14.60;99.90;;;;;;5112206;27;20053;-80
2023/05/19 07:56:26;;;;;;;9.88;2.28;;;14.70;99.90;;;;;;5123726;27;20050;-79
2023/05/19 07:58:52;;;;;;;9.57;2.00;;;14.80;99.90;;;;;;5143777;27;20041;-79
2023/05/19 08:01:18;;;;;;;10.30;2.08;;;14.80;99.90;;;;;;5130598;27;20271;-79
2023/05/19 08:03:43;;;;;;;9.60;2.40;;;14.80;99.90;;;;;;5130190;27;20057;-79
2023/05/19 08:06:09;;;;;;;10.05;2.60;;;14.90;99.90;;;;;;5131693;27;20059;-78
2023/05/19 08:08:35;;;;;;;8.45;2.35;;;15.20;99.90;;;;;;5114365;27;20051;-79
2023/05/19 08:11:03;;;;;;;13.40;2.70;;;15.10;99.90;;;;;;5149030;27;20034;-80
2023/05/19 08:13:29;;;;;;;10.80;2.42;;;15.10;99.90;;;;;;5120520;27;20047;-79
2023/05/19 08:15:58;;;;;;;8.77;2.10;;;15.20;99.90;;;;;;5126782;27;20538;-80
2023/05/19 08:18:25;;;;;;;10.38;3.05;;;15.20;99.90;;;;;;5117780;27;20112;-80
2023/05/19 08:20:50;;;;;;;15.00;2.65;;;15.30;99.90;;;;;;5149782;27;20401;-80
2023/05/19 08:23:16;;;;;;;9.10;2.63;;;15.30;99.90;;;;;;5130727;27;20057;-79
2023/05/19 08:25:42;;;;;;;14.60;3.40;;;15.40;99.90;;;;;;5111652;27;20074;-79
2023/05/19 08:28:08;;;;;;;9.27;2.63;;;15.40;99.90;;;;;;5147026;27;20046;-80
2023/05/19 08:30:34;;;;;;;13.05;2.38;;;15.40;99.90;;;;;;5104327;27;20119;-79
2023/05/19 08:33:00;;;;;;;10.30;2.70;;;15.50;99.90;;;;;;5129571;27;20431;-79
2023/05/19 08:35:27;;;;;;;13.85;2.38;;;15.50;99.90;;;;;;5125643;27;20123;-79
2023/05/19 08:37:52;;;;;;;10.38;2.50;;;15.60;99.90;;;;;;5111064;27;20482;-80
2023/05/19 08:40:19;;;;;;;11.48;2.55;;;15.60;99.90;;;;;;5148872;27;20042;-79
2023/05/19 08:42:45;;;;;;;16.10;2.75;;;15.70;99.90;;;;;;5149478;27;20401;-81
2023/05/19 08:45:11;;;;;;;12.50;2.28;;;15.80;99.90;;;;;;5126114;27;20047;-79
2023/05/19 08:47:37;;;;;;;11.65;2.22;;;15.90;99.90;;;;;;5125714;27;20042;-80
2023/05/19 08:50:06;;;;;;;7.68;2.38;;;16.00;99.90;;;;;;5125361;27;20547;-79
2023/05/19 08:52:57;;;;;;;7.72;2.05;;;16.10;99.90;;;;;;5118951;27;20059;-79
2023/05/19 08:55:39;;;;;;;11.43;2.75;;;16.20;99.90;;;;;;5105931;27;20038;-79
2023/05/19 08:58:07;;;;;;;12.95;2.47;;;16.30;99.90;;;;;;5124930;27;20081;-79
2023/05/19 09:00:33;;;;;;;16.23;2.58;;;16.30;99.90;;;;;;5127103;27;20378;-79
2023/05/19 09:03:00;;;;;;;8.40;2.40;;;16.40;99.90;;;;;;5130227;27;20516;-79
2023/05/19 09:05:25;;;;;;;8.82;2.67;;;16.40;99.90;;;;;;5127901;27;20054;-79
2023/05/19 09:07:51;;;;;;;9.60;2.20;;;16.50;99.90;;;;;;5129964;27;20047;-79
2023/05/19 09:10:17;;;;;;;11.68;2.70;;;16.50;99.90;;;;;;5128519;27;20134;-79
2023/05/19 09:12:44;;;;;;;11.82;3.08;;;16.50;99.90;;;;;;5130064;27;20039;-79
2023/05/19 09:15:11;;;;;;;12.90;2.55;;;16.50;99.90;;;;;;5127604;27;20051;-79
2023/05/19 09:17:37;;;;;;;11.10;2.88;;;16.50;99.90;;;;;;5147725;27;20085;-79
2023/05/19 09:20:09;;;;;;;10.23;2.65;;;16.60;99.90;;;;;;5128781;27;20074;-79
2023/05/19 09:22:46;;;;;;;23.47;3.10;;;16.70;99.90;;;;;;5147722;27;20054;-79
2023/05/19 09:25:21;;;;;;;14.40;2.38;;;16.80;99.90;;;;;;5125919;27;20118;-79
2023/05/19 09:27:47;;;;;;;10.55;2.33;;;16.80;99.90;;;;;;5142829;27;20039;-79
2023/05/19 09:30:15;;;;;;;12.18;2.85;;;16.80;99.90;;;;;;5117116;27;20068;-79
2023/05/19 09:32:40;;;;;;;8.18;2.35;;;16.90;99.90;;;;;;5142518;27;20043;-79
2023/05/19 09:35:06;;;;;;;11.55;2.40;;;16.80;99.90;;;;;;5107009;27;20042;-79
2023/05/19 09:37:32;;;;;;;9.90;2.50;;;16.80;99.90;;;;;;5126176;27;20126;-79
2023/05/19 09:39:58;;;;;;;8.20;2.17;;;16.70;99.90;;;;;;5128883;27;20118;-79
2023/05/19 09:42:25;;;;;;;9.25;2.50;;;16.70;99.90;;;;;;5128385;27;20057;-79
2023/05/19 09:45:00;;;;;;;15.70;2.40;;;16.80;99.90;;;;;;5112387;28;20463;-79
2023/05/19 09:47:26;;;;;;;10.27;2.65;;;16.80;99.90;;;;;;5138771;27;20039;-79
2023/05/19 09:49:52;;;;;;;9.13;2.30;;;16.90;99.90;;;;;;5125140;27;20095;-79
2023/05/19 09:52:19;;;;;;;7.07;2.38;;;16.90;99.90;;;;;;5129163;27;20055;-79
2023/05/19 09:54:47;;;;;;;10.27;2.40;;;16.90;99.90;;;;;;5145639;27;20097;-79
2023/05/19 09:57:13;;;;;;;7.95;2.35;;;16.90;99.90;;;;;;5122167;27;20051;-79
2023/05/19 09:59:39;;;;;;;9.75;1.90;;;16.90;99.90;;;;;;5148209;27;20045;-80
2023/05/19 10:02:14;;;;;;;12.35;2.70;;;17.00;99.90;;;;;;5147620;27;20038;-79
2023/05/19 10:04:41;;;;;;;9.65;2.13;;;17.00;99.90;;;;;;5111661;27;20520;-79
2023/05/19 10:07:08;;;;;;;8.82;2.20;;;17.00;99.60;;;;;;5145562;27;20363;-82
2023/05/19 10:09:36;;;;;;;9.23;2.35;;;17.00;99.30;;;;;;5129035;27;20051;-80
2023/05/19 10:12:03;;;;;;;4.75;2.20;;;17.00;99.90;;;;;;5110511;27;20128;-79
2023/05/19 10:14:29;;;;;;;8.95;2.40;;;16.90;99.80;;;;;;5132720;27;20046;-80
2023/05/19 10:16:57;;;;;;;10.45;2.30;;;17.10;99.80;;;;;;5151680;27;20102;-79
2023/05/19 10:19:24;;;;;;;9.93;2.05;;;17.20;99.90;;;;;;5149218;27;20042;-80
2023/05/19 10:21:50;;;;;;;7.68;2.22;;;17.30;99.20;;;;;;5132955;27;20152;-79
2023/05/19 10:24:17;;;;;;;8.40;2.30;;;17.40;98.00;;;;;;5132705;27;20179;-80
2023/05/19 10:26:48;;;;;;;11.27;2.28;;;17.50;97.70;;;;;;5152176;27;20065;-79
2023/05/19 10:29:17;;;;;;;10.98;2.03;;;17.50;97.10;;;;;;5151394;27;20654;-80
2023/05/19 10:31:46;;;;;;;12.07;2.40;;;17.60;97.10;;;;;;5128963;27;20520;-79
2023/05/19 10:34:18;;;;;;;8.90;2.13;;;17.70;97.00;;;;;;5145905;27;20051;-79
2023/05/19 10:36:47;;;;;;;12.50;2.05;;;17.70;96.20;;;;;;5122864;27;20127;-79
2023/05/19 10:39:18;;;;;;;7.45;1.90;;;17.80;96.90;;;;;;5132404;27;20046;-79
2023/05/19 10:41:48;;;;;;;10.40;2.22;;;17.90;95.70;;;;;;5098490;27;20149;-79
2023/05/19 10:44:28;;;;;;;6.63;1.55;;;17.90;94.90;;;;;;5123578;27;20081;-80
2023/05/19 10:46:54;;;;;;;7.22;1.98;;;17.80;94.80;;;;;;5129194;27;20065;-79
2023/05/19 10:49:21;;;;;;;8.18;1.85;;;17.70;94.70;;;;;;5127320;27;20486;-80
2023/05/19 10:51:47;;;;;;;10.10;2.10;;;17.60;94.00;;;;;;5129966;27;20047;-79
2023/05/19 10:54:15;;;;;;;7.45;2.05;;;17.70;93.80;;;;;;5124716;27;20047;-79
2023/05/19 10:56:46;;;;;;;7.43;1.65;;;17.90;94.00;;;;;;5105188;27;20046;-79
2023/05/19 10:59:31;;;;;;;11.07;2.40;;;18.00;93.70;;;;;;5114991;27;20046;-80
2023/05/19 11:02:03;;;;;;;8.82;2.10;;;18.20;93.80;;;;;;5150713;27;20378;-80
2023/05/19 11:04:46;;;;;;;5.55;1.70;;;18.30;93.70;;;;;;5132139;27;20050;-79
2023/05/19 11:07:18;;;;;;;10.93;2.72;;;18.50;93.00;;;;;;5132035;27;20202;-79
2023/05/19 11:09:50;;;;;;;9.38;2.00;;;18.60;92.70;;;;;;5151041;27;20031;-79
2023/05/19 11:12:20;;;;;;;10.32;2.17;;;18.60;92.30;;;;;;5132527;27;20057;-79
2023/05/19 11:14:46;;;;;;;9.18;2.20;;;18.70;93.30;;;;;;5131585;27;20126;-79
2023/05/19 11:17:14;;;;;;;7.82;2.10;;;18.70;92.70;;;;;;5150258;27;20137;-79
2023/05/19 11:19:58;;;;;;;9.15;2.28;;;18.80;92.80;;;;;;5132221;27;20050;-80
2023/05/19 11:22:25;;;;;;;11.27;2.38;;;18.90;92.60;;;;;;5131488;27;20477;-79
2023/05/19 11:24:54;;;;;;;7.78;1.80;;;18.90;93.20;;;;;;5131621;27;20182;-79
2023/05/19 11:27:30;;;;;;;9.60;2.28;;;18.90;92.80;;;;;;5132125;27;20129;-80
2023/05/19 11:29:58;;;;;;;10.63;2.60;;;19.00;92.00;;;;;;5150501;27;20042;-80
2023/05/19 11:32:28;;;;;;;10.70;2.67;;;19.00;92.10;;;;;;5128151;27;20531;-80
2023/05/19 11:34:55;;;;;;;9.30;2.40;;;19.00;92.70;;;;;;5123976;27;20054;-80
2023/05/19 11:37:21;;;;;;;10.02;1.98;;;19.10;93.90;;;;;;5111632;27;20042;-80
2023/05/19 11:39:47;;;;;;;7.72;1.98;;;19.20;94.30;;;;;;5127877;27;20461;-79
2023/05/19 11:42:13;;;;;;;11.07;2.58;;;19.20;93.00;;;;;;5113979;27;20049;-82
2023/05/19 11:44:40;;;;;;;9.00;2.03;;;19.30;92.40;;;;;;5110944;27;20035;-82
2023/05/19 11:47:06;;;;;;;9.68;2.05;;;19.40;91.90;;;;;;5111201;27;20043;-81
2023/05/19 11:49:32;;;;;;;9.90;2.05;;;19.40;91.70;;;;;;5147147;27;20130;-79
2023/05/19 11:52:00;;;;;;;6.22;1.98;;;19.30;91.10;;;;;;5128267;27;20107;-79
2023/05/19 11:54:35;;;;;;;7.43;1.75;;;19.20;90.30;;;;;;5125979;27;20114;-79
2023/05/19 11:57:02;;;;;;;7.65;1.65;;;19.00;90.30;;;;;;5120307;27;20039;-79
2023/05/19 11:59:30;;;;;;;8.85;1.77;;;18.90;90.80;;;;;;5127771;27;20469;-79
2023/05/19 12:01:57;;;;;;;10.20;1.83;;;18.90;90.40;;;;;;5104376;27;20162;-79
2023/05/19 12:04:22;;;;;;;8.85;1.95;;;19.00;90.20;;;;;;5130838;27;20046;-79
2023/05/19 12:06:48;;;;;;;26.45;2.80;;;19.10;89.90;;;;;;5128354;27;20070;-80
2023/05/19 12:09:14;;;;;;;8.48;1.80;;;19.10;90.00;;;;;;5114234;27;20046;-80
2023/05/19 12:11:40;;;;;;;9.73;1.90;;;19.10;89.70;;;;;;5149479;27;20078;-79
2023/05/19 12:14:07;;;;;;;8.23;2.10;;;19.10;90.70;;;;;;5131264;27;20125;-79
2023/05/19 12:16:34;;;;;;;14.93;2.38;;;19.20;91.60;;;;;;5127444;27;20881;-79
2023/05/19 12:19:00;;;;;;;12.75;2.85;;;19.30;91.00;;;;;;5116911;27;20045;-80
2023/05/19 12:21:26;;;;;;;8.85;1.77;;;19.30;90.70;;;;;;5127423;27;20051;-79
2023/05/19 12:23:52;;;;;;;8.02;2.35;;;19.20;90.50;;;;;;5113455;27;20034;-79
2023/05/19 12:26:21;;;;;;;6.72;2.28;;;19.20;90.70;;;;;;5149370;27;20049;-80
2023/05/19 12:28:49;;;;;;;11.05;2.50;;;19.20;91.00;;;;;;5114673;27;20138;-80
2023/05/19 12:31:16;;;;;;;8.65;1.70;;;19.30;91.00;;;;;;5129216;27;20069;-80
2023/05/19 12:33:42;;;;;;;8.02;1.90;;;19.40;90.90;;;;;;5127865;27;20079;-80
2023/05/19 12:36:08;;;;;;;13.75;2.47;;;19.50;91.00;;;;;;5143701;27;20050;-80
2023/05/19 12:38:36;;;;;;;8.70;2.20;;;19.60;90.70;;;;;;5126465;27;20066;-80
2023/05/19 12:41:02;;;;;;;9.65;2.53;;;19.50;90.30;;;;;;5124999;27;20045;-79
2023/05/19 12:43:28;;;;;;;11.07;2.22;;;19.50;90.40;;;;;;5130522;27;20043;-79